createdAt,value
2022-10-13T00:03:47.289Z,8.40
2022-10-13T00:08:59.602Z,8.43
2022-10-13T00:14:07.809Z,7.50
2022-10-13T00:19:15.187Z,8.20
2022-10-13T00:24:20.215Z,7.90
2022-10-13T00:29:27.590Z,8.27
2022-10-13T00:34:32.447Z,8.43
2022-10-13T00:39:37.761Z,8.53
2022-10-13T00:45:08.231Z,8.80
2022-10-13T00:50:19.528Z,8.43
2022-10-13T00:55:32.075Z,7.77
2022-10-13T01:00:39.495Z,8.07
2022-10-13T01:05:45.637Z,8.53
2022-10-13T01:11:00.124Z,9.03
2022-10-13T01:16:16.163Z,8.83
2022-10-13T01:21:33.203Z,8.40
2022-10-13T01:27:18.880Z,8.23
2022-10-13T01:32:33.435Z,8.60
2022-10-13T01:37:47.561Z,8.67
2022-10-13T01:42:59.234Z,9.10
2022-10-13T01:48:09.059Z,8.33
2022-10-13T01:53:21.372Z,8.50
2022-10-13T01:58:35.716Z,9.47
2022-10-13T02:03:55.271Z,8.50
2022-10-13T02:09:05.769Z,9.33
2022-10-13T02:14:14.906Z,8.97
2022-10-13T02:19:23.001Z,8.97
2022-10-13T02:24:27.980Z,9.20
2022-10-13T02:29:33.040Z,8.63
2022-10-13T02:34:40.404Z,8.17
2022-10-13T02:39:45.234Z,9.70
2022-10-13T02:44:49.982Z,9.40
2022-10-13T02:49:57.435Z,9.77
2022-10-13T02:55:02.289Z,8.97
2022-10-13T03:00:08.493Z,9.00
2022-10-13T03:05:15.971Z,9.97
2022-10-13T03:10:20.972Z,9.70
2022-10-13T03:15:28.441Z,10.40
2022-10-13T03:20:39.619Z,8.70
2022-10-13T03:25:44.555Z,9.90
2022-10-13T03:30:49.472Z,10.20
2022-10-13T03:35:56.980Z,10.37
2022-10-13T03:41:07.904Z,9.60
2022-10-13T03:46:16.570Z,10.73
2022-10-13T03:51:27.963Z,10.67
2022-10-13T03:56:33.122Z,10.53
2022-10-13T04:01:38.030Z,10.57
2022-10-13T04:06:46.024Z,11.23
2022-10-13T04:11:54.028Z,11.43
2022-10-13T04:16:58.807Z,11.20
2022-10-13T04:22:06.286Z,11.23
2022-10-13T04:27:11.357Z,11.80
2022-10-13T04:32:16.144Z,10.03
2022-10-13T04:37:23.548Z,11.20
2022-10-13T04:42:28.425Z,12.63
2022-10-13T04:47:36.885Z,11.93
2022-10-13T04:52:44.590Z,12.13
2022-10-13T04:57:49.478Z,11.53
2022-10-13T05:02:54.399Z,11.23
2022-10-13T05:08:04.078Z,12.33
2022-10-13T05:13:08.878Z,12.23
2022-10-13T05:18:13.669Z,13.07
2022-10-13T05:23:21.119Z,12.50
2022-10-13T05:28:28.097Z,12.20
2022-10-13T05:33:33.973Z,13.63
2022-10-13T05:38:41.782Z,12.57
2022-10-13T05:43:47.091Z,14.07
2022-10-13T05:48:52.043Z,13.20
2022-10-13T05:54:05.231Z,12.40
2022-10-13T05:59:15.048Z,11.87
2022-10-13T06:04:29.178Z,13.03
2022-10-13T06:09:38.634Z,12.67
2022-10-13T06:14:44.265Z,11.80
2022-10-13T06:19:49.594Z,12.33
2022-10-13T06:24:57.124Z,12.77
2022-10-13T06:30:04.840Z,10.60
2022-10-13T06:35:12.873Z,12.13
2022-10-13T06:40:20.422Z,12.27
2022-10-13T06:45:25.480Z,12.37
2022-10-13T06:50:32.366Z,12.07
2022-10-13T06:55:40.438Z,12.37
2022-10-13T07:00:46.227Z,10.83
2022-10-13T07:05:51.765Z,11.83
2022-10-13T07:10:59.256Z,12.37
2022-10-13T07:16:06.381Z,11.93
2022-10-13T07:21:20.432Z,12.17
2022-10-13T07:26:40.383Z,10.83
2022-10-13T07:32:00.407Z,11.10
2022-10-13T07:37:07.554Z,10.20
2022-10-13T07:42:28.383Z,10.17
2022-10-13T07:47:38.108Z,9.90
2022-10-13T07:52:42.889Z,9.73
2022-10-13T07:57:53.412Z,10.33
2022-10-13T08:02:59.362Z,10.27
2022-10-13T08:08:05.149Z,10.23
2022-10-13T08:13:13.864Z,10.13
2022-10-13T08:18:20.886Z,10.10
2022-10-13T08:23:28.929Z,10.40
2022-10-13T08:28:36.452Z,9.50
2022-10-13T08:33:41.663Z,9.60
2022-10-13T08:38:48.586Z,9.73
2022-10-13T08:44:47.555Z,10.40
2022-10-13T08:49:33.840Z,10.07
2022-10-13T08:54:38.715Z,9.80
2022-10-13T08:59:46.313Z,10.60
2022-10-13T09:04:53.624Z,9.80
2022-10-13T09:09:59.009Z,10.30
2022-10-13T09:15:11.488Z,10.50
2022-10-13T09:20:24.238Z,10.37
2022-10-13T09:25:29.182Z,8.87
2022-10-13T09:30:39.512Z,10.40
2022-10-13T09:35:47.458Z,9.33
2022-10-13T09:41:04.002Z,9.77
2022-10-13T09:46:24.403Z,9.50
2022-10-13T09:51:41.766Z,8.93
2022-10-13T09:57:01.666Z,9.60
2022-10-13T10:02:26.490Z,9.37
2022-10-13T10:07:34.803Z,9.33
2022-10-13T10:12:44.480Z,9.93
2022-10-13T10:17:58.828Z,9.93
2022-10-13T10:23:09.234Z,9.23
2022-10-13T10:28:30.701Z,9.13
2022-10-13T10:33:48.316Z,9.70
2022-10-13T10:39:00.310Z,9.30
2022-10-13T10:44:07.202Z,8.80
2022-10-13T10:49:21.304Z,9.07
2022-10-13T10:54:34.639Z,9.20
2022-10-13T10:59:52.343Z,8.80
2022-10-13T11:05:06.089Z,8.97
2022-10-13T11:10:23.864Z,8.63
2022-10-13T11:15:31.412Z,8.30
2022-10-13T11:21:00.815Z,8.83
2022-10-13T11:26:22.500Z,8.50
2022-10-13T11:31:50.032Z,10.33
2022-10-13T11:37:01.874Z,8.57
2022-10-13T11:42:23.096Z,8.13
2022-10-13T11:47:59.727Z,7.67
2022-10-13T11:53:17.511Z,7.67
2022-10-13T11:58:25.498Z,7.93
2022-10-13T12:03:32.563Z,6.80
2022-10-13T12:08:42.114Z,8.10
2022-10-13T12:13:50.095Z,7.70
2022-10-13T12:18:56.880Z,7.63
2022-10-13T12:24:12.888Z,7.37
2022-10-13T12:29:20.420Z,7.47
2022-10-13T12:34:28.637Z,6.47
2022-10-13T12:39:38.341Z,6.27
2022-10-13T12:44:43.948Z,5.80
2022-10-13T12:55:39.997Z,6.00
2022-10-13T13:00:44.978Z,6.13
2022-10-13T13:05:52.898Z,5.50
2022-10-13T13:11:03.988Z,7.23
2022-10-13T13:16:19.119Z,8.53
2022-10-13T13:21:23.955Z,8.70
2022-10-13T13:26:31.316Z,9.87
2022-10-13T13:31:36.132Z,9.33
2022-10-13T13:36:41.084Z,9.40
2022-10-13T13:41:50.497Z,9.67
2022-10-13T13:46:57.152Z,9.90
2022-10-13T14:03:54.885Z,11.70
2022-10-13T14:09:31.614Z,12.23
2022-10-13T14:14:49.836Z,10.60
2022-10-13T14:20:00.806Z,10.73
2022-10-13T14:25:08.270Z,10.17
2022-10-13T14:30:17.593Z,10.03
2022-10-13T14:35:22.561Z,10.37
2022-10-13T14:40:27.357Z,9.30
2022-10-13T14:45:34.945Z,7.53
2022-10-13T14:50:40.776Z,6.80
2022-10-13T14:55:46.122Z,7.90
2022-10-13T15:00:53.803Z,9.53
2022-10-13T15:05:58.659Z,10.87
2022-10-13T15:11:05.858Z,10.90
2022-10-13T15:16:19.354Z,12.03
2022-10-13T15:21:27.318Z,12.00
2022-10-13T15:26:32.555Z,11.87
2022-10-13T15:31:40.092Z,12.23
2022-10-13T15:36:44.966Z,12.63
2022-10-13T15:41:49.972Z,12.80
2022-10-13T15:47:07.778Z,12.53
2022-10-13T15:52:12.992Z,14.13
2022-10-13T15:57:18.086Z,14.50
2022-10-13T16:02:25.715Z,14.90
2022-10-13T16:07:30.729Z,14.00
2022-10-13T16:12:35.477Z,14.47
2022-10-13T16:17:45.642Z,15.33
2022-10-13T16:22:50.571Z,16.60
2022-10-13T16:27:55.753Z,15.43
2022-10-13T16:33:03.184Z,14.53
2022-10-13T16:38:08.069Z,14.50
2022-10-13T16:43:14.743Z,15.40
2022-10-13T16:48:28.940Z,14.50
2022-10-13T16:53:34.007Z,16.73
2022-10-13T16:58:43.738Z,15.30
2022-10-13T17:03:53.176Z,14.53
2022-10-13T17:08:58.051Z,15.53
2022-10-13T17:14:05.568Z,14.13
2022-10-13T17:19:13.052Z,15.00
2022-10-13T17:24:19.850Z,16.47
2022-10-13T17:29:24.587Z,16.30
2022-10-13T17:34:35.635Z,16.63
2022-10-13T17:39:42.062Z,17.13
2022-10-13T17:44:47.121Z,17.33
2022-10-13T17:49:55.958Z,18.40
2022-10-13T17:55:01.134Z,17.57
2022-10-13T18:00:07.780Z,18.40
2022-10-13T18:05:22.655Z,17.03
2022-10-13T18:10:27.560Z,17.50
2022-10-13T18:15:38.217Z,18.17
2022-10-13T18:20:45.637Z,16.90
2022-10-13T18:25:51.243Z,18.00
2022-10-13T18:31:05.078Z,17.23
2022-10-13T18:36:42.871Z,18.97
2022-10-13T18:41:48.546Z,19.00
2022-10-13T18:46:56.538Z,20.77
2022-10-13T18:52:04.612Z,20.70
2022-10-13T18:57:09.378Z,19.67
2022-10-13T19:02:16.790Z,18.93
2022-10-13T19:07:24.257Z,20.53
2022-10-13T19:12:29.149Z,19.57
2022-10-13T19:17:33.938Z,18.77
2022-10-13T19:22:41.359Z,20.50
2022-10-13T19:27:46.261Z,20.50
2022-10-13T19:32:51.095Z,24.20
2022-10-13T19:37:58.521Z,24.30
2022-10-13T19:43:03.919Z,24.60
2022-10-13T19:48:08.938Z,24.13
2022-10-13T19:53:17.323Z,25.47
2022-10-13T19:58:22.195Z,26.27
2022-10-13T20:03:27.473Z,25.50
2022-10-13T20:08:34.901Z,26.37
2022-10-13T20:13:40.331Z,25.70
2022-10-13T20:18:45.487Z,27.20
2022-10-13T20:23:53.569Z,29.20
2022-10-13T20:29:00.669Z,31.63
2022-10-13T20:34:05.503Z,29.63
2022-10-13T20:39:13.205Z,28.17
2022-10-13T20:44:18.091Z,30.23
2022-10-13T20:49:22.984Z,29.70
2022-10-13T20:54:30.474Z,30.27
2022-10-13T20:59:35.802Z,29.37
2022-10-13T21:04:40.769Z,27.90
2022-10-13T21:09:53.445Z,26.37
2022-10-13T21:14:58.809Z,25.83
2022-10-13T21:20:04.218Z,25.90
2022-10-13T21:25:12.361Z,24.90
2022-10-13T21:30:20.183Z,24.73
2022-10-13T21:35:25.381Z,25.67
2022-10-13T21:40:32.970Z,24.83
2022-10-13T21:45:38.009Z,25.20
2022-10-13T21:50:42.745Z,24.33
2022-10-13T21:55:50.127Z,25.07
2022-10-13T22:00:54.925Z,24.87
2022-10-13T22:06:00.137Z,25.57
2022-10-13T22:11:08.660Z,25.70
2022-10-13T22:16:15.854Z,24.50
2022-10-13T22:21:24.470Z,24.63
2022-10-13T22:26:33.963Z,24.83
2022-10-13T22:31:39.406Z,24.67
2022-10-13T22:36:47.519Z,24.07
2022-10-13T22:41:54.878Z,24.60
2022-10-13T22:46:59.586Z,24.63
2022-10-13T22:52:04.377Z,24.20
2022-10-13T22:57:11.836Z,24.97
2022-10-13T23:02:16.754Z,24.07
2022-10-13T23:07:21.887Z,23.77
2022-10-13T23:12:29.483Z,24.10
2022-10-13T23:17:34.249Z,24.83
2022-10-13T23:22:39.811Z,23.17
2022-10-13T23:27:47.226Z,22.93
2022-10-13T23:32:52.112Z,23.63
2022-10-13T23:37:56.859Z,23.77
2022-10-13T23:43:04.301Z,24.87
2022-10-13T23:48:10.292Z,24.63
2022-10-13T23:53:18.531Z,25.57
2022-10-13T23:58:25.898Z,25.53
